sensor_id;sensor_type;location;lat;lon;timestamp;temperature;humidity
23411;DHT22;11878;51.774;7.220;2023-04-24T00:00:11;11.10;99.90
23411;DHT22;11878;51.774;7.220;2023-04-24T00:03:16;11.10;99.90
23411;DHT22;11878;51.774;7.220;2023-04-24T00:06:18;11.10;99.90
23411;DHT22;11878;51.774;7.220;2023-04-24T00:09:20;11.10;99.90
23411;DHT22;11878;51.774;7.220;2023-04-24T00:12:22;11.10;99.90
23411;DHT22;11878;51.774;7.220;2023-04-24T00:15:23;11.10;99.90
23411;DHT22;11878;51.774;7.220;2023-04-24T00:18:25;11.10;99.90
23411;DHT22;11878;51.774;7.220;2023-04-24T00:21:27;11.10;99.90
23411;DHT22;11878;51.774;7.220;2023-04-24T00:24:29;11.10;99.90
23411;DHT22;11878;51.774;7.220;2023-04-24T00:27:30;11.00;99.90
23411;DHT22;11878;51.774;7.220;2023-04-24T00:30:32;11.10;99.90
23411;DHT22;11878;51.774;7.220;2023-04-24T00:33:34;11.10;99.90
23411;DHT22;11878;51.774;7.220;2023-04-24T00:36:36;11.10;99.90
23411;DHT22;11878;51.774;7.220;2023-04-24T00:39:38;11.10;99.90
23411;DHT22;11878;51.774;7.220;2023-04-24T00:42:40;11.10;99.90
23411;DHT22;11878;51.774;7.220;2023-04-24T00:45:42;11.10;99.90
23411;DHT22;11878;51.774;7.220;2023-04-24T00:48:45;11.20;99.90
23411;DHT22;11878;51.774;7.220;2023-04-24T00:51:47;11.10;99.90
23411;DHT22;11878;51.774;7.220;2023-04-24T00:54:50;11.20;99.90
23411;DHT22;11878;51.774;7.220;2023-04-24T00:57:52;11.20;99.90
23411;DHT22;11878;51.774;7.220;2023-04-24T01:00:54;11.20;99.90
23411;DHT22;11878;51.774;7.220;2023-04-24T01:03:59;11.20;99.90
23411;DHT22;11878;51.774;7.220;2023-04-24T01:07:01;11.10;99.90
23411;DHT22;11878;51.774;7.220;2023-04-24T01:10:03;11.10;99.90
23411;DHT22;11878;51.774;7.220;2023-04-24T01:13:05;11.10;99.90
23411;DHT22;11878;51.774;7.220;2023-04-24T01:16:08;11.10;99.90
23411;DHT22;11878;51.774;7.220;2023-04-24T01:19:11;11.10;99.90
23411;DHT22;11878;51.774;7.220;2023-04-24T01:22:14;11.10;99.90
23411;DHT22;11878;51.774;7.220;2023-04-24T01:25:16;11.10;99.90
23411;DHT22;11878;51.774;7.220;2023-04-24T01:28:18;11.00;99.90
23411;DHT22;11878;51.774;7.220;2023-04-24T01:31:20;11.00;99.90
23411;DHT22;11878;51.774;7.220;2023-04-24T01:34:22;10.90;99.90
23411;DHT22;11878;51.774;7.220;2023-04-24T01:37:24;10.90;99.90
23411;DHT22;11878;51.774;7.220;2023-04-24T01:40:26;10.90;99.90
23411;DHT22;11878;51.774;7.220;2023-04-24T01:43:27;10.90;99.90
23411;DHT22;11878;51.774;7.220;2023-04-24T01:46:32;10.90;99.90
23411;DHT22;11878;51.774;7.220;2023-04-24T01:49:39;10.90;99.90
23411;DHT22;11878;51.774;7.220;2023-04-24T01:52:41;10.90;99.90
23411;DHT22;11878;51.774;7.220;2023-04-24T01:55:44;10.80;99.90
23411;DHT22;11878;51.774;7.220;2023-04-24T01:58:48;10.80;99.90
23411;DHT22;11878;51.774;7.220;2023-04-24T02:01:52;10.80;99.90
23411;DHT22;11878;51.774;7.220;2023-04-24T02:04:54;10.70;99.90
23411;DHT22;11878;51.774;7.220;2023-04-24T02:07:56;10.70;99.90
23411;DHT22;11878;51.774;7.220;2023-04-24T02:10:58;10.70;99.90
23411;DHT22;11878;51.774;7.220;2023-04-24T02:13:59;10.70;99.90
23411;DHT22;11878;51.774;7.220;2023-04-24T02:17:01;10.60;99.90
23411;DHT22;11878;51.774;7.220;2023-04-24T02:20:03;10.50;99.90
23411;DHT22;11878;51.774;7.220;2023-04-24T02:23:06;10.50;99.90
23411;DHT22;11878;51.774;7.220;2023-04-24T02:26:08;10.40;99.90
23411;DHT22;11878;51.774;7.220;2023-04-24T02:29:10;10.40;99.90
23411;DHT22;11878;51.774;7.220;2023-04-24T02:32:12;10.30;99.90
23411;DHT22;11878;51.774;7.220;2023-04-24T02:35:14;10.30;99.90
23411;DHT22;11878;51.774;7.220;2023-04-24T02:38:16;10.30;99.90
23411;DHT22;11878;51.774;7.220;2023-04-24T02:41:18;10.30;99.90
23411;DHT22;11878;51.774;7.220;2023-04-24T02:44:19;10.30;99.90
23411;DHT22;11878;51.774;7.220;2023-04-24T02:47:21;10.30;99.90
23411;DHT22;11878;51.774;7.220;2023-04-24T02:50:23;10.30;99.90
23411;DHT22;11878;51.774;7.220;2023-04-24T02:53:25;10.30;99.90
23411;DHT22;11878;51.774;7.220;2023-04-24T02:56:27;10.30;99.90
23411;DHT22;11878;51.774;7.220;2023-04-24T02:59:30;10.30;99.90
23411;DHT22;11878;51.774;7.220;2023-04-24T03:02:32;10.30;99.90
23411;DHT22;11878;51.774;7.220;2023-04-24T03:05:34;10.20;99.90
23411;DHT22;11878;51.774;7.220;2023-04-24T03:08:36;10.20;99.90
23411;DHT22;11878;51.774;7.220;2023-04-24T03:11:38;10.20;99.90
23411;DHT22;11878;51.774;7.220;2023-04-24T03:14:42;10.10;99.90
23411;DHT22;11878;51.774;7.220;2023-04-24T03:17:44;10.10;99.90
23411;DHT22;11878;51.774;7.220;2023-04-24T03:20:46;10.10;99.90
23411;DHT22;11878;51.774;7.220;2023-04-24T03:23:48;10.10;99.90
23411;DHT22;11878;51.774;7.220;2023-04-24T03:26:50;10.00;99.90
23411;DHT22;11878;51.774;7.220;2023-04-24T03:30:12;10.00;99.90
23411;DHT22;11878;51.774;7.220;2023-04-24T03:33:22;10.00;99.90
23411;DHT22;11878;51.774;7.220;2023-04-24T03:36:32;10.00;99.90
23411;DHT22;11878;51.774;7.220;2023-04-24T03:39:34;10.10;99.90
23411;DHT22;11878;51.774;7.220;2023-04-24T03:42:36;10.10;99.90
23411;DHT22;11878;51.774;7.220;2023-04-24T03:45:40;10.10;99.90
23411;DHT22;11878;51.774;7.220;2023-04-24T03:48:42;10.10;99.90
23411;DHT22;11878;51.774;7.220;2023-04-24T03:51:45;10.00;99.90
23411;DHT22;11878;51.774;7.220;2023-04-24T03:54:58;10.10;99.90
23411;DHT22;11878;51.774;7.220;2023-04-24T03:58:01;10.10;99.90
23411;DHT22;11878;51.774;7.220;2023-04-24T04:01:03;10.10;99.90
23411;DHT22;11878;51.774;7.220;2023-04-24T04:04:31;10.10;99.90
23411;DHT22;11878;51.774;7.220;2023-04-24T04:07:34;10.00;99.90
23411;DHT22;11878;51.774;7.220;2023-04-24T04:10:36;10.00;99.90
23411;DHT22;11878;51.774;7.220;2023-04-24T04:13:39;10.10;99.90
23411;DHT22;11878;51.774;7.220;2023-04-24T04:16:41;10.00;99.90
23411;DHT22;11878;51.774;7.220;2023-04-24T04:19:44;10.00;99.90
23411;DHT22;11878;51.774;7.220;2023-04-24T04:22:46;10.00;99.90
23411;DHT22;11878;51.774;7.220;2023-04-24T04:25:54;10.00;99.90
23411;DHT22;11878;51.774;7.220;2023-04-24T04:29:00;9.90;99.90
23411;DHT22;11878;51.774;7.220;2023-04-24T04:32:03;9.90;99.90
23411;DHT22;11878;51.774;7.220;2023-04-24T04:35:05;9.90;99.90
23411;DHT22;11878;51.774;7.220;2023-04-24T04:38:08;9.90;99.90
23411;DHT22;11878;51.774;7.220;2023-04-24T04:41:33;9.90;99.90
23411;DHT22;11878;51.774;7.220;2023-04-24T04:44:37;9.90;99.90
23411;DHT22;11878;51.774;7.220;2023-04-24T04:47:41;9.90;99.90
23411;DHT22;11878;51.774;7.220;2023-04-24T04:50:43;9.90;99.90
23411;DHT22;11878;51.774;7.220;2023-04-24T04:53:46;9.90;99.90
23411;DHT22;11878;51.774;7.220;2023-04-24T04:56:50;10.00;99.90
23411;DHT22;11878;51.774;7.220;2023-04-24T04:59:52;9.90;99.90
23411;DHT22;11878;51.774;7.220;2023-04-24T05:03:09;10.00;99.90
23411;DHT22;11878;51.774;7.220;2023-04-24T05:06:27;10.00;99.90
23411;DHT22;11878;51.774;7.220;2023-04-24T05:09:29;10.00;99.90
23411;DHT22;11878;51.774;7.220;2023-04-24T05:12:36;10.00;99.90
23411;DHT22;11878;51.774;7.220;2023-04-24T05:15:38;10.00;99.90
23411;DHT22;11878;51.774;7.220;2023-04-24T05:18:40;10.00;99.90
23411;DHT22;11878;51.774;7.220;2023-04-24T05:21:45;10.10;99.90
23411;DHT22;11878;51.774;7.220;2023-04-24T05:24:47;10.00;99.90
23411;DHT22;11878;51.774;7.220;2023-04-24T05:28:09;10.00;99.90
23411;DHT22;11878;51.774;7.220;2023-04-24T05:31:12;10.00;99.90
23411;DHT22;11878;51.774;7.220;2023-04-24T05:34:14;10.00;99.90
23411;DHT22;11878;51.774;7.220;2023-04-24T05:37:19;10.10;99.90
23411;DHT22;11878;51.774;7.220;2023-04-24T05:40:21;10.10;99.90
23411;DHT22;11878;51.774;7.220;2023-04-24T05:43:23;10.00;99.90
23411;DHT22;11878;51.774;7.220;2023-04-24T05:46:25;10.10;99.90
23411;DHT22;11878;51.774;7.220;2023-04-24T05:49:27;10.10;99.90
23411;DHT22;11878;51.774;7.220;2023-04-24T05:52:29;10.10;99.90
23411;DHT22;11878;51.774;7.220;2023-04-24T05:55:31;10.10;99.90
23411;DHT22;11878;51.774;7.220;2023-04-24T05:58:33;10.10;99.90
23411;DHT22;11878;51.774;7.220;2023-04-24T06:01:35;10.00;99.90
23411;DHT22;11878;51.774;7.220;2023-04-24T06:04:46;10.00;99.90
23411;DHT22;11878;51.774;7.220;2023-04-24T06:07:48;10.10;99.90
23411;DHT22;11878;51.774;7.220;2023-04-24T06:10:50;10.10;99.90
23411;DHT22;11878;51.774;7.220;2023-04-24T06:13:55;10.00;99.90
23411;DHT22;11878;51.774;7.220;2023-04-24T06:17:12;9.90;99.90
23411;DHT22;11878;51.774;7.220;2023-04-24T06:20:15;10.00;99.90
23411;DHT22;11878;51.774;7.220;2023-04-24T06:23:17;10.00;99.90
23411;DHT22;11878;51.774;7.220;2023-04-24T06:26:18;9.90;99.90
23411;DHT22;11878;51.774;7.220;2023-04-24T06:29:20;9.80;99.90
23411;DHT22;11878;51.774;7.220;2023-04-24T06:32:23;9.80;99.90
23411;DHT22;11878;51.774;7.220;2023-04-24T06:35:25;9.80;99.90
23411;DHT22;11878;51.774;7.220;2023-04-24T06:38:27;9.90;99.90
23411;DHT22;11878;51.774;7.220;2023-04-24T06:41:31;9.80;99.90
23411;DHT22;11878;51.774;7.220;2023-04-24T06:44:32;9.80;99.90
23411;DHT22;11878;51.774;7.220;2023-04-24T06:47:39;9.80;99.90
23411;DHT22;11878;51.774;7.220;2023-04-24T06:50:40;9.80;99.90
23411;DHT22;11878;51.774;7.220;2023-04-24T06:53:42;9.70;99.90
23411;DHT22;11878;51.774;7.220;2023-04-24T06:56:44;9.70;99.90
23411;DHT22;11878;51.774;7.220;2023-04-24T06:59:48;9.60;99.90
23411;DHT22;11878;51.774;7.220;2023-04-24T07:02:50;9.70;99.90
23411;DHT22;11878;51.774;7.220;2023-04-24T07:05:51;9.60;99.90
23411;DHT22;11878;51.774;7.220;2023-04-24T07:08:54;9.70;99.90
23411;DHT22;11878;51.774;7.220;2023-04-24T07:11:57;9.60;99.90
23411;DHT22;11878;51.774;7.220;2023-04-24T07:15:00;9.70;99.90
23411;DHT22;11878;51.774;7.220;2023-04-24T07:18:02;9.70;99.90
23411;DHT22;11878;51.774;7.220;2023-04-24T07:21:06;9.60;99.90
23411;DHT22;11878;51.774;7.220;2023-04-24T07:24:08;9.60;99.90
23411;DHT22;11878;51.774;7.220;2023-04-24T07:27:12;9.50;99.90
23411;DHT22;11878;51.774;7.220;2023-04-24T07:30:16;9.50;99.90
23411;DHT22;11878;51.774;7.220;2023-04-24T07:33:18;9.50;99.90
23411;DHT22;11878;51.774;7.220;2023-04-24T07:36:19;9.50;99.90
23411;DHT22;11878;51.774;7.220;2023-04-24T07:39:21;9.50;99.90
23411;DHT22;11878;51.774;7.220;2023-04-24T07:42:23;9.60;99.90
23411;DHT22;11878;51.774;7.220;2023-04-24T07:45:25;9.50;99.90
23411;DHT22;11878;51.774;7.220;2023-04-24T07:48:29;9.50;99.90
23411;DHT22;11878;51.774;7.220;2023-04-24T07:51:31;9.50;99.90
23411;DHT22;11878;51.774;7.220;2023-04-24T07:54:35;9.50;99.90
23411;DHT22;11878;51.774;7.220;2023-04-24T07:57:40;9.60;99.90
23411;DHT22;11878;51.774;7.220;2023-04-24T08:00:42;9.80;99.90
23411;DHT22;11878;51.774;7.220;2023-04-24T08:03:44;9.80;99.90
23411;DHT22;11878;51.774;7.220;2023-04-24T08:06:47;9.70;99.90
23411;DHT22;11878;51.774;7.220;2023-04-24T08:09:49;9.60;99.90
23411;DHT22;11878;51.774;7.220;2023-04-24T08:12:52;9.60;99.90
23411;DHT22;11878;51.774;7.220;2023-04-24T08:15:53;9.60;99.90
23411;DHT22;11878;51.774;7.220;2023-04-24T08:18:55;9.50;99.90
23411;DHT22;11878;51.774;7.220;2023-04-24T08:21:57;9.60;99.90
23411;DHT22;11878;51.774;7.220;2023-04-24T08:25:00;9.60;99.90
23411;DHT22;11878;51.774;7.220;2023-04-24T08:28:03;9.70;99.90
23411;DHT22;11878;51.774;7.220;2023-04-24T08:31:05;9.70;99.90
23411;DHT22;11878;51.774;7.220;2023-04-24T08:34:09;9.70;99.90
23411;DHT22;11878;51.774;7.220;2023-04-24T08:37:11;9.60;99.90
23411;DHT22;11878;51.774;7.220;2023-04-24T08:40:15;9.60;99.90
23411;DHT22;11878;51.774;7.220;2023-04-24T08:43:17;9.50;99.90
23411;DHT22;11878;51.774;7.220;2023-04-24T08:46:20;9.40;99.90
23411;DHT22;11878;51.774;7.220;2023-04-24T08:49:24;9.40;99.90
23411;DHT22;11878;51.774;7.220;2023-04-24T08:52:26;9.50;99.90
23411;DHT22;11878;51.774;7.220;2023-04-24T08:55:30;9.50;99.90
23411;DHT22;11878;51.774;7.220;2023-04-24T08:58:33;9.50;99.90
23411;DHT22;11878;51.774;7.220;2023-04-24T09:01:35;9.30;99.90
23411;DHT22;11878;51.774;7.220;2023-04-24T09:04:40;9.20;99.90
23411;DHT22;11878;51.774;7.220;2023-04-24T09:07:45;9.20;99.90
23411;DHT22;11878;51.774;7.220;2023-04-24T09:10:47;9.20;99.90
23411;DHT22;11878;51.774;7.220;2023-04-24T09:13:52;9.20;99.90
23411;DHT22;11878;51.774;7.220;2023-04-24T09:16:54;9.50;99.90
23411;DHT22;11878;51.774;7.220;2023-04-24T09:19:56;9.50;99.90
23411;DHT22;11878;51.774;7.220;2023-04-24T09:22:58;9.60;99.90
23411;DHT22;11878;51.774;7.220;2023-04-24T09:26:01;9.50;99.90
23411;DHT22;11878;51.774;7.220;2023-04-24T09:29:04;9.60;99.90
23411;DHT22;11878;51.774;7.220;2023-04-24T09:32:22;9.50;99.90
23411;DHT22;11878;51.774;7.220;2023-04-24T09:35:26;9.60;99.90
23411;DHT22;11878;51.774;7.220;2023-04-24T09:38:36;8.90;99.90
23411;DHT22;11878;51.774;7.220;2023-04-24T09:41:48;9.70;99.90
23411;DHT22;11878;51.774;7.220;2023-04-24T09:44:50;9.60;99.90
23411;DHT22;11878;51.774;7.220;2023-04-24T09:48:05;9.50;99.90
23411;DHT22;11878;51.774;7.220;2023-04-24T09:51:10;9.50;99.90
23411;DHT22;11878;51.774;7.220;2023-04-24T09:54:17;9.50;99.90
23411;DHT22;11878;51.774;7.220;2023-04-24T09:57:21;9.50;99.90
23411;DHT22;11878;51.774;7.220;2023-04-24T10:00:28;9.50;99.90
23411;DHT22;11878;51.774;7.220;2023-04-24T10:03:34;9.60;99.90
23411;DHT22;11878;51.774;7.220;2023-04-24T10:06:37;9.40;99.90
23411;DHT22;11878;51.774;7.220;2023-04-24T10:09:45;9.50;99.90
23411;DHT22;11878;51.774;7.220;2023-04-24T10:12:47;9.30;99.90
23411;DHT22;11878;51.774;7.220;2023-04-24T10:15:49;9.10;99.90
23411;DHT22;11878;51.774;7.220;2023-04-24T10:18:51;9.20;99.90
23411;DHT22;11878;51.774;7.220;2023-04-24T10:21:53;9.00;99.90
23411;DHT22;11878;51.774;7.220;2023-04-24T10:24:57;9.00;99.90
23411;DHT22;11878;51.774;7.220;2023-04-24T10:28:01;8.80;99.90
23411;DHT22;11878;51.774;7.220;2023-04-24T10:31:03;8.80;99.90
23411;DHT22;11878;51.774;7.220;2023-04-24T10:34:06;8.90;99.90
23411;DHT22;11878;51.774;7.220;2023-04-24T10:37:10;8.90;99.90
23411;DHT22;11878;51.774;7.220;2023-04-24T10:40:17;8.90;99.90
23411;DHT22;11878;51.774;7.220;2023-04-24T10:43:19;8.90;99.90
23411;DHT22;11878;51.774;7.220;2023-04-24T10:46:21;8.80;99.90
23411;DHT22;11878;51.774;7.220;2023-04-24T10:49:30;8.80;99.90
23411;DHT22;11878;51.774;7.220;2023-04-24T10:52:49;8.90;99.90
23411;DHT22;11878;51.774;7.220;2023-04-24T10:56:06;8.90;99.90
23411;DHT22;11878;51.774;7.220;2023-04-24T10:59:09;8.80;99.90
23411;DHT22;11878;51.774;7.220;2023-04-24T11:02:16;8.80;99.90
23411;DHT22;11878;51.774;7.220;2023-04-24T11:05:20;8.80;99.90
23411;DHT22;11878;51.774;7.220;2023-04-24T11:08:24;8.80;99.90
23411;DHT22;11878;51.774;7.220;2023-04-24T11:11:29;8.60;99.90
23411;DHT22;11878;51.774;7.220;2023-04-24T11:17:59;8.90;99.90
23411;DHT22;11878;51.774;7.220;2023-04-24T11:21:10;8.80;99.90
23411;DHT22;11878;51.774;7.220;2023-04-24T11:24:38;8.70;99.90
23411;DHT22;11878;51.774;7.220;2023-04-24T11:27:46;8.90;99.90
23411;DHT22;11878;51.774;7.220;2023-04-24T11:30:49;8.80;99.90
23411;DHT22;11878;51.774;7.220;2023-04-24T11:33:53;8.90;99.90
23411;DHT22;11878;51.774;7.220;2023-04-24T11:36:54;9.10;99.90
23411;DHT22;11878;51.774;7.220;2023-04-24T11:39:58;9.20;99.90
23411;DHT22;11878;51.774;7.220;2023-04-24T11:43:00;9.10;99.90
23411;DHT22;11878;51.774;7.220;2023-04-24T11:46:02;9.20;99.90
23411;DHT22;11878;51.774;7.220;2023-04-24T11:49:06;9.50;99.90
23411;DHT22;11878;51.774;7.220;2023-04-24T11:52:08;9.30;99.90
23411;DHT22;11878;51.774;7.220;2023-04-24T11:58:21;9.20;99.90
23411;DHT22;11878;51.774;7.220;2023-04-24T12:01:23;9.20;99.90
23411;DHT22;11878;51.774;7.220;2023-04-24T12:04:25;9.30;99.90
23411;DHT22;11878;51.774;7.220;2023-04-24T12:07:27;9.20;99.90
23411;DHT22;11878;51.774;7.220;2023-04-24T12:10:30;9.40;99.90
23411;DHT22;11878;51.774;7.220;2023-04-24T12:13:33;9.80;99.90
23411;DHT22;11878;51.774;7.220;2023-04-24T12:16:35;10.10;99.90
23411;DHT22;11878;51.774;7.220;2023-04-24T12:19:37;10.20;99.90
23411;DHT22;11878;51.774;7.220;2023-04-24T12:22:54;10.60;99.90
23411;DHT22;11878;51.774;7.220;2023-04-24T12:26:00;10.40;99.90
23411;DHT22;11878;51.774;7.220;2023-04-24T12:29:03;10.50;99.90
23411;DHT22;11878;51.774;7.220;2023-04-24T12:32:16;10.10;99.90
23411;DHT22;11878;51.774;7.220;2023-04-24T12:35:23;10.00;99.90
23411;DHT22;11878;51.774;7.220;2023-04-24T12:38:26;9.80;99.90
23411;DHT22;11878;51.774;7.220;2023-04-24T12:41:30;9.50;99.90
23411;DHT22;11878;51.774;7.220;2023-04-24T12:44:33;9.50;99.90
23411;DHT22;11878;51.774;7.220;2023-04-24T12:47:36;9.70;99.90
23411;DHT22;11878;51.774;7.220;2023-04-24T12:50:39;9.80;99.90
23411;DHT22;11878;51.774;7.220;2023-04-24T12:53:42;9.90;99.90
23411;DHT22;11878;51.774;7.220;2023-04-24T12:56:44;9.90;99.90
23411;DHT22;11878;51.774;7.220;2023-04-24T12:59:46;9.90;99.90
23411;DHT22;11878;51.774;7.220;2023-04-24T13:02:47;9.90;99.90
23411;DHT22;11878;51.774;7.220;2023-04-24T13:05:49;9.90;99.90
23411;DHT22;11878;51.774;7.220;2023-04-24T13:08:51;10.00;99.90
23411;DHT22;11878;51.774;7.220;2023-04-24T13:11:54;9.90;99.90
23411;DHT22;11878;51.774;7.220;2023-04-24T13:14:58;9.80;99.90
23411;DHT22;11878;51.774;7.220;2023-04-24T13:18:00;9.70;99.90
23411;DHT22;11878;51.774;7.220;2023-04-24T13:21:02;9.60;99.90
23411;DHT22;11878;51.774;7.220;2023-04-24T13:24:03;9.60;99.90
23411;DHT22;11878;51.774;7.220;2023-04-24T13:27:06;9.80;99.90
23411;DHT22;11878;51.774;7.220;2023-04-24T13:30:08;10.20;99.90
23411;DHT22;11878;51.774;7.220;2023-04-24T13:33:10;10.20;99.90
23411;DHT22;11878;51.774;7.220;2023-04-24T13:36:12;10.40;99.90
23411;DHT22;11878;51.774;7.220;2023-04-24T13:39:14;10.40;99.90
23411;DHT22;11878;51.774;7.220;2023-04-24T13:42:15;10.10;99.90
23411;DHT22;11878;51.774;7.220;2023-04-24T13:45:17;9.90;99.90
23411;DHT22;11878;51.774;7.220;2023-04-24T13:48:26;9.90;99.90
23411;DHT22;11878;51.774;7.220;2023-04-24T13:51:27;10.00;99.90
23411;DHT22;11878;51.774;7.220;2023-04-24T13:54:29;10.10;99.90
23411;DHT22;11878;51.774;7.220;2023-04-24T13:57:31;10.20;99.90
23411;DHT22;11878;51.774;7.220;2023-04-24T14:00:33;10.10;99.90
23411;DHT22;11878;51.774;7.220;2023-04-24T14:03:35;9.80;99.90
23411;DHT22;11878;51.774;7.220;2023-04-24T14:06:41;9.70;99.90
23411;DHT22;11878;51.774;7.220;2023-04-24T14:09:42;9.60;99.90
23411;DHT22;11878;51.774;7.220;2023-04-24T14:12:44;9.50;99.90
23411;DHT22;11878;51.774;7.220;2023-04-24T14:15:46;9.40;99.90
23411;DHT22;11878;51.774;7.220;2023-04-24T14:18:48;9.30;99.90
23411;DHT22;11878;51.774;7.220;2023-04-24T14:21:50;9.20;99.90
23411;DHT22;11878;51.774;7.220;2023-04-24T14:24:51;9.10;99.90
23411;DHT22;11878;51.774;7.220;2023-04-24T14:27:53;9.10;99.90
23411;DHT22;11878;51.774;7.220;2023-04-24T14:30:55;9.20;99.90
23411;DHT22;11878;51.774;7.220;2023-04-24T14:33:57;9.20;99.90
23411;DHT22;11878;51.774;7.220;2023-04-24T14:36:59;9.10;99.90
23411;DHT22;11878;51.774;7.220;2023-04-24T14:40:00;9.10;99.90
23411;DHT22;11878;51.774;7.220;2023-04-24T14:43:07;9.00;99.90
23411;DHT22;11878;51.774;7.220;2023-04-24T14:46:08;9.10;99.90
23411;DHT22;11878;51.774;7.220;2023-04-24T14:49:10;9.10;99.90
23411;DHT22;11878;51.774;7.220;2023-04-24T14:52:13;9.00;99.90
23411;DHT22;11878;51.774;7.220;2023-04-24T14:55:15;8.90;99.90
23411;DHT22;11878;51.774;7.220;2023-04-24T14:58:17;8.90;99.90
23411;DHT22;11878;51.774;7.220;2023-04-24T15:01:19;8.90;99.90
23411;DHT22;11878;51.774;7.220;2023-04-24T15:04:21;8.80;99.90
23411;DHT22;11878;51.774;7.220;2023-04-24T15:07:23;9.10;99.90
23411;DHT22;11878;51.774;7.220;2023-04-24T15:10:25;9.50;99.90
23411;DHT22;11878;51.774;7.220;2023-04-24T15:13:27;9.70;99.90
23411;DHT22;11878;51.774;7.220;2023-04-24T15:16:28;9.80;99.90
23411;DHT22;11878;51.774;7.220;2023-04-24T15:19:31;9.60;99.90
23411;DHT22;11878;51.774;7.220;2023-04-24T15:22:32;9.60;99.90
23411;DHT22;11878;51.774;7.220;2023-04-24T15:25:35;9.80;99.90
23411;DHT22;11878;51.774;7.220;2023-04-24T15:28:36;9.90;99.90
23411;DHT22;11878;51.774;7.220;2023-04-24T15:31:38;9.70;99.90
23411;DHT22;11878;51.774;7.220;2023-04-24T15:34:41;10.10;99.90
23411;DHT22;11878;51.774;7.220;2023-04-24T15:37:44;10.00;99.90
23411;DHT22;11878;51.774;7.220;2023-04-24T15:40:46;10.10;99.90
23411;DHT22;11878;51.774;7.220;2023-04-24T15:43:47;10.00;99.90
23411;DHT22;11878;51.774;7.220;2023-04-24T15:46:49;9.90;99.90
23411;DHT22;11878;51.774;7.220;2023-04-24T15:49:53;9.70;99.90
23411;DHT22;11878;51.774;7.220;2023-04-24T15:52:55;9.40;99.90
23411;DHT22;11878;51.774;7.220;2023-04-24T15:55:56;9.40;99.90
23411;DHT22;11878;51.774;7.220;2023-04-24T15:58:58;9.60;99.90
23411;DHT22;11878;51.774;7.220;2023-04-24T16:02:01;10.00;99.90
23411;DHT22;11878;51.774;7.220;2023-04-24T16:05:05;11.30;99.90
23411;DHT22;11878;51.774;7.220;2023-04-24T16:08:09;11.00;99.90
23411;DHT22;11878;51.774;7.220;2023-04-24T16:11:11;13.20;99.90
23411;DHT22;11878;51.774;7.220;2023-04-24T16:14:13;14.10;99.90
23411;DHT22;11878;51.774;7.220;2023-04-24T16:17:14;13.30;99.90
23411;DHT22;11878;51.774;7.220;2023-04-24T16:20:16;13.20;99.90
23411;DHT22;11878;51.774;7.220;2023-04-24T16:23:18;13.20;99.90
23411;DHT22;11878;51.774;7.220;2023-04-24T16:26:20;13.30;99.90
23411;DHT22;11878;51.774;7.220;2023-04-24T16:29:22;13.20;99.90
23411;DHT22;11878;51.774;7.220;2023-04-24T16:32:23;13.20;99.90
23411;DHT22;11878;51.774;7.220;2023-04-24T16:35:25;12.50;99.90
23411;DHT22;11878;51.774;7.220;2023-04-24T16:38:27;11.60;99.90
23411;DHT22;11878;51.774;7.220;2023-04-24T16:41:29;11.30;99.90
23411;DHT22;11878;51.774;7.220;2023-04-24T16:44:31;11.10;99.90
23411;DHT22;11878;51.774;7.220;2023-04-24T16:47:33;11.00;99.90
23411;DHT22;11878;51.774;7.220;2023-04-24T16:50:35;11.00;99.90
23411;DHT22;11878;51.774;7.220;2023-04-24T16:53:37;10.90;99.90
23411;DHT22;11878;51.774;7.220;2023-04-24T16:56:39;10.80;99.90
23411;DHT22;11878;51.774;7.220;2023-04-24T16:59:41;10.80;99.90
23411;DHT22;11878;51.774;7.220;2023-04-24T17:02:43;10.60;99.90
23411;DHT22;11878;51.774;7.220;2023-04-24T17:05:49;10.60;99.90
23411;DHT22;11878;51.774;7.220;2023-04-24T17:08:51;10.50;99.90
23411;DHT22;11878;51.774;7.220;2023-04-24T17:11:53;10.50;99.90
23411;DHT22;11878;51.774;7.220;2023-04-24T17:14:54;10.60;99.90
23411;DHT22;11878;51.774;7.220;2023-04-24T17:17:56;10.60;99.90
23411;DHT22;11878;51.774;7.220;2023-04-24T17:20:58;10.60;99.90
23411;DHT22;11878;51.774;7.220;2023-04-24T17:23:59;10.70;99.90
23411;DHT22;11878;51.774;7.220;2023-04-24T17:27:01;11.50;99.90
23411;DHT22;11878;51.774;7.220;2023-04-24T17:30:15;11.20;99.90
23411;DHT22;11878;51.774;7.220;2023-04-24T17:33:18;11.00;99.90
23411;DHT22;11878;51.774;7.220;2023-04-24T17:36:19;10.90;99.90
23411;DHT22;11878;51.774;7.220;2023-04-24T17:39:21;11.10;99.90
23411;DHT22;11878;51.774;7.220;2023-04-24T17:42:23;11.00;99.90
23411;DHT22;11878;51.774;7.220;2023-04-24T17:45:25;10.70;99.90
23411;DHT22;11878;51.774;7.220;2023-04-24T17:48:27;10.50;99.90
23411;DHT22;11878;51.774;7.220;2023-04-24T17:51:28;10.60;99.90
23411;DHT22;11878;51.774;7.220;2023-04-24T17:54:30;10.80;99.90
23411;DHT22;11878;51.774;7.220;2023-04-24T17:57:32;10.40;99.90
23411;DHT22;11878;51.774;7.220;2023-04-24T18:00:34;10.20;99.90
23411;DHT22;11878;51.774;7.220;2023-04-24T18:03:36;10.20;99.90
23411;DHT22;11878;51.774;7.220;2023-04-24T18:06:41;9.70;99.90
23411;DHT22;11878;51.774;7.220;2023-04-24T18:09:43;9.60;99.90
23411;DHT22;11878;51.774;7.220;2023-04-24T18:12:46;9.50;99.90
23411;DHT22;11878;51.774;7.220;2023-04-24T18:15:47;9.40;99.90
23411;DHT22;11878;51.774;7.220;2023-04-24T18:18:49;9.30;99.90
23411;DHT22;11878;51.774;7.220;2023-04-24T18:21:51;9.40;99.90
23411;DHT22;11878;51.774;7.220;2023-04-24T18:24:53;9.30;99.90
23411;DHT22;11878;51.774;7.220;2023-04-24T18:27:54;9.40;99.90
23411;DHT22;11878;51.774;7.220;2023-04-24T18:30:57;9.30;99.90
23411;DHT22;11878;51.774;7.220;2023-04-24T18:33:59;9.20;99.90
23411;DHT22;11878;51.774;7.220;2023-04-24T18:37:01;9.10;99.90
23411;DHT22;11878;51.774;7.220;2023-04-24T18:40:02;9.00;99.90
23411;DHT22;11878;51.774;7.220;2023-04-24T18:43:05;8.90;99.90
23411;DHT22;11878;51.774;7.220;2023-04-24T18:46:07;8.90;99.90
23411;DHT22;11878;51.774;7.220;2023-04-24T18:49:10;8.80;99.90
23411;DHT22;11878;51.774;7.220;2023-04-24T18:52:12;8.80;99.90
23411;DHT22;11878;51.774;7.220;2023-04-24T18:55:13;8.60;99.90
23411;DHT22;11878;51.774;7.220;2023-04-24T18:58:15;8.70;99.90
23411;DHT22;11878;51.774;7.220;2023-04-24T19:01:17;8.70;99.90
23411;DHT22;11878;51.774;7.220;2023-04-24T19:04:19;8.60;99.90
23411;DHT22;11878;51.774;7.220;2023-04-24T19:07:21;8.70;99.90
23411;DHT22;11878;51.774;7.220;2023-04-24T19:10:23;8.50;99.90
23411;DHT22;11878;51.774;7.220;2023-04-24T19:13:25;8.40;99.90
23411;DHT22;11878;51.774;7.220;2023-04-24T19:16:27;8.30;99.90
23411;DHT22;11878;51.774;7.220;2023-04-24T19:19:29;8.20;99.90
23411;DHT22;11878;51.774;7.220;2023-04-24T19:22:32;8.20;99.90
23411;DHT22;11878;51.774;7.220;2023-04-24T19:25:35;8.10;99.90
23411;DHT22;11878;51.774;7.220;2023-04-24T19:28:36;8.00;99.90
23411;DHT22;11878;51.774;7.220;2023-04-24T19:31:46;8.00;99.90
23411;DHT22;11878;51.774;7.220;2023-04-24T19:34:48;7.90;99.90